createdAt,value
2019-02-23T00:02:23.838Z,18.57
2019-02-23T00:04:53.258Z,18.37
2019-02-23T00:07:22.607Z,19.97
2019-02-23T00:09:51.949Z,16.60
2019-02-23T00:12:21.384Z,18.03
2019-02-23T00:14:50.878Z,19.17
2019-02-23T00:17:20.188Z,16.60
2019-02-23T00:20:08.847Z,18.00
2019-02-23T00:22:38.104Z,18.13
2019-02-23T00:25:07.410Z,18.37
2019-02-23T00:27:36.715Z,16.33
2019-02-23T00:30:07.315Z,18.73
2019-02-23T00:32:36.572Z,16.47
2019-02-23T00:35:05.957Z,17.00
2019-02-23T00:37:35.216Z,16.93
2019-02-23T00:40:05.648Z,16.40
2019-02-23T00:42:36.791Z,15.80
2019-02-23T00:45:06.130Z,16.50
2019-02-23T00:47:35.435Z,15.63
2019-02-23T00:50:05.371Z,16.43
2019-02-23T00:52:34.712Z,16.70
2019-02-23T00:55:23.318Z,15.93
2019-02-23T00:57:52.534Z,16.77
2019-02-23T01:00:41.157Z,16.80
2019-02-23T01:03:10.408Z,17.83
2019-02-23T01:05:39.674Z,17.90
2019-02-23T01:08:08.979Z,16.83
2019-02-23T01:10:58.490Z,17.40
2019-02-23T01:13:28.169Z,18.20
2019-02-23T01:15:58.550Z,17.57
2019-02-23T01:18:27.998Z,16.30
2019-02-23T01:20:57.305Z,17.33
2019-02-23T01:23:26.562Z,17.60
2019-02-23T01:25:55.864Z,18.03
2019-02-23T01:28:25.106Z,21.50
2019-02-23T01:30:54.420Z,19.07
2019-02-23T01:33:43.032Z,19.60
2019-02-23T01:36:12.347Z,20.60
2019-02-23T01:38:41.586Z,20.87
2019-02-23T01:41:10.982Z,21.00
2019-02-23T01:43:40.288Z,21.40
2019-02-23T01:46:09.614Z,22.20
2019-02-23T01:48:38.852Z,21.63
2019-02-23T01:51:27.442Z,21.87
2019-02-23T01:53:56.723Z,20.93
2019-02-23T01:56:25.987Z,22.30
2019-02-23T01:58:55.235Z,23.07
2019-02-23T02:01:24.547Z,22.60
2019-02-23T02:03:53.867Z,21.90
2019-02-23T02:06:42.521Z,22.20
2019-02-23T02:09:12.002Z,24.40
2019-02-23T02:11:41.304Z,22.10
2019-02-23T02:14:10.564Z,22.23
2019-02-23T02:16:39.871Z,21.97
2019-02-23T02:19:28.446Z,23.77
2019-02-23T02:21:57.699Z,23.13
2019-02-23T02:24:27.056Z,22.50
2019-02-23T02:26:56.304Z,23.13
2019-02-23T02:29:25.635Z,23.23
2019-02-23T02:31:54.984Z,21.93
2019-02-23T02:34:24.378Z,25.00
2019-02-23T02:36:53.646Z,21.70
2019-02-23T02:39:22.903Z,21.57
2019-02-23T02:41:52.143Z,22.27
2019-02-23T02:44:21.405Z,23.20
2019-02-23T02:46:50.721Z,21.13
2019-02-23T02:49:19.999Z,20.50
2019-02-23T02:51:49.320Z,20.33
2019-02-23T02:54:18.557Z,23.00
2019-02-23T02:56:47.890Z,21.50
2019-02-23T02:59:17.208Z,21.70
2019-02-23T03:01:46.462Z,20.20
2019-02-23T03:04:35.034Z,20.87
2019-02-23T03:07:04.355Z,20.77
2019-02-23T03:09:33.690Z,21.77
2019-02-23T03:12:03.028Z,19.33
2019-02-23T03:14:32.281Z,19.10
2019-02-23T03:17:01.548Z,18.87
2019-02-23T03:19:30.864Z,19.47
2019-02-23T03:22:00.087Z,18.00
2019-02-23T03:24:29.375Z,18.77
2019-02-23T03:26:58.645Z,17.67
2019-02-23T03:29:27.865Z,18.90
2019-02-23T03:31:57.100Z,17.83
2019-02-23T03:34:26.370Z,18.20
2019-02-23T03:36:55.607Z,18.57
2019-02-23T03:39:24.855Z,19.20
2019-02-23T03:41:54.111Z,18.73
2019-02-23T03:44:23.351Z,17.83
2019-02-23T03:46:52.579Z,19.20
2019-02-23T03:49:21.855Z,17.63
2019-02-23T03:51:51.117Z,16.67
2019-02-23T03:54:20.364Z,19.23
2019-02-23T03:56:49.612Z,18.83
2019-02-23T03:59:18.914Z,17.50
2019-02-23T04:02:07.509Z,18.60
2019-02-23T04:04:36.747Z,18.10
2019-02-23T04:07:06.003Z,17.90
2019-02-23T04:09:35.274Z,17.40
2019-02-23T04:12:04.561Z,18.10
2019-02-23T04:14:33.903Z,17.67
2019-02-23T04:17:03.133Z,19.60
2019-02-23T04:19:32.400Z,20.03
2019-02-23T04:22:01.631Z,19.73
2019-02-23T04:24:30.880Z,18.13
2019-02-23T04:27:00.114Z,17.30
2019-02-23T04:29:29.401Z,17.53
2019-02-23T04:31:58.627Z,17.13
2019-02-23T04:34:27.868Z,17.17
2019-02-23T04:36:57.091Z,18.00
2019-02-23T04:39:26.358Z,16.20
2019-02-23T04:41:55.590Z,16.80
2019-02-23T04:44:24.842Z,17.10
2019-02-23T04:46:54.268Z,17.27
2019-02-23T04:49:25.805Z,16.60
2019-02-23T04:51:54.446Z,17.33
2019-02-23T04:54:23.742Z,16.73
2019-02-23T04:56:52.967Z,15.80
2019-02-23T04:59:22.207Z,17.00
2019-02-23T05:01:51.446Z,15.73
2019-02-23T05:04:20.719Z,17.00
2019-02-23T05:06:50.081Z,18.03
2019-02-23T05:09:19.380Z,17.70
2019-02-23T05:11:51.427Z,17.77
2019-02-23T05:14:39.029Z,17.40
2019-02-23T05:17:08.267Z,17.53
2019-02-23T05:19:37.518Z,19.30
2019-02-23T05:22:06.782Z,15.50
2019-02-23T05:24:36.020Z,17.40
2019-02-23T05:27:05.263Z,16.83
2019-02-23T05:29:34.522Z,17.40
2019-02-23T05:32:23.103Z,15.27
2019-02-23T05:34:52.422Z,15.87
2019-02-23T05:37:21.663Z,16.70
2019-02-23T05:39:50.930Z,15.63
2019-02-23T05:42:20.163Z,17.00
2019-02-23T05:44:49.458Z,16.07
2019-02-23T05:47:20.115Z,16.40
2019-02-23T05:50:01.892Z,16.13
2019-02-23T05:52:31.132Z,15.10
2019-02-23T05:55:00.372Z,19.67
2019-02-23T05:57:29.648Z,17.63
2019-02-23T05:59:58.871Z,16.53
2019-02-23T06:02:28.124Z,17.40
2019-02-23T06:04:57.451Z,18.07
2019-02-23T06:07:26.730Z,17.17
2019-02-23T06:09:56.037Z,15.97
2019-02-23T06:12:25.259Z,17.30
2019-02-23T06:14:54.532Z,16.37
2019-02-23T06:17:23.768Z,18.10
2019-02-23T06:19:53.042Z,16.47
2019-02-23T06:22:22.274Z,16.70
2019-02-23T06:24:51.554Z,16.67
2019-02-23T06:27:20.818Z,17.97
2019-02-23T06:29:50.059Z,16.87
2019-02-23T06:32:19.337Z,16.80
2019-02-23T06:35:09.106Z,16.10
2019-02-23T06:37:38.366Z,17.43
2019-02-23T06:40:09.911Z,17.57
2019-02-23T06:42:39.203Z,16.47
2019-02-23T06:45:11.191Z,17.20
2019-02-23T06:47:40.430Z,18.27
2019-02-23T06:50:09.739Z,17.20
2019-02-23T06:52:38.977Z,16.53
2019-02-23T06:55:08.567Z,18.03
2019-02-23T06:57:37.810Z,16.47
2019-02-23T07:00:26.407Z,19.00
2019-02-23T07:02:55.691Z,18.30
2019-02-23T07:05:25.030Z,16.53
2019-02-23T07:07:54.292Z,16.87
2019-02-23T07:10:23.608Z,16.70
2019-02-23T07:12:52.891Z,19.53
2019-02-23T07:15:28.196Z,15.70
2019-02-23T07:17:57.482Z,16.67
2019-02-23T07:20:26.811Z,16.70
2019-02-23T07:22:56.078Z,17.27
2019-02-23T07:25:25.349Z,18.47
2019-02-23T07:27:54.631Z,17.77
2019-02-23T07:30:23.975Z,18.57
2019-02-23T07:32:53.347Z,16.60
2019-02-23T07:35:22.760Z,18.07
2019-02-23T07:37:52.050Z,18.10
2019-02-23T07:40:40.611Z,17.00
2019-02-23T07:43:09.949Z,17.30
2019-02-23T07:45:39.190Z,15.43
2019-02-23T07:48:08.446Z,18.53
2019-02-23T07:50:49.737Z,16.70
2019-02-23T07:53:19.048Z,16.27
2019-02-23T07:55:48.390Z,14.80
2019-02-23T07:58:17.627Z,14.83
2019-02-23T08:00:47.058Z,14.63
2019-02-23T08:03:16.463Z,13.53
2019-02-23T08:05:45.815Z,15.87
2019-02-23T08:08:15.085Z,13.97
2019-02-23T08:10:44.405Z,13.83
2019-02-23T08:13:13.671Z,12.73
2019-02-23T08:15:42.902Z,14.13
2019-02-23T08:18:12.284Z,11.87
2019-02-23T08:20:41.518Z,13.17
2019-02-23T08:23:10.772Z,13.20
2019-02-23T08:25:59.379Z,13.40
2019-02-23T08:28:47.955Z,11.90
2019-02-23T08:31:17.228Z,11.83
2019-02-23T08:33:46.470Z,12.73
2019-02-23T08:36:15.735Z,12.47
2019-02-23T08:39:04.906Z,12.47
2019-02-23T08:41:34.218Z,12.63
2019-02-23T08:44:03.469Z,12.60
2019-02-23T08:46:32.801Z,12.47
2019-02-23T08:49:02.037Z,12.80
2019-02-23T08:51:31.293Z,12.13
2019-02-23T08:54:00.519Z,12.30
2019-02-23T08:56:31.019Z,13.83
2019-02-23T08:59:00.503Z,12.57
2019-02-23T09:01:30.026Z,12.30
2019-02-23T09:04:18.635Z,12.80
2019-02-23T09:06:47.910Z,12.87
2019-02-23T09:09:17.183Z,12.87
2019-02-23T09:11:46.515Z,12.53
2019-02-23T09:14:35.179Z,13.17
2019-02-23T09:17:04.484Z,12.30
2019-02-23T09:19:33.719Z,13.33
2019-02-23T09:22:03.078Z,11.97
2019-02-23T09:24:32.379Z,14.40
2019-02-23T09:27:01.618Z,13.03
2019-02-23T09:29:30.894Z,13.37
2019-02-23T09:32:19.483Z,14.93
2019-02-23T09:34:48.724Z,12.40
2019-02-23T09:37:17.978Z,14.50
2019-02-23T09:39:47.335Z,13.10
2019-02-23T09:42:16.659Z,13.67
2019-02-23T09:44:45.994Z,13.47
2019-02-23T09:47:15.255Z,12.77
2019-02-23T09:49:44.512Z,13.37
2019-02-23T09:52:13.830Z,14.47
2019-02-23T09:54:43.210Z,15.67
2019-02-23T09:57:12.464Z,13.63
2019-02-23T09:59:41.872Z,14.57
2019-02-23T10:02:11.106Z,14.87
2019-02-23T10:04:40.405Z,13.53
2019-02-23T10:07:09.843Z,14.83
2019-02-23T10:09:39.196Z,14.30
2019-02-23T10:12:08.424Z,15.00
2019-02-23T10:14:37.684Z,16.17
2019-02-23T10:17:09.164Z,16.20
2019-02-23T10:19:37.922Z,14.77
2019-02-23T10:22:07.219Z,15.40
2019-02-23T10:24:36.459Z,15.87
2019-02-23T10:27:05.726Z,16.13
2019-02-23T10:29:34.963Z,15.53
2019-02-23T10:32:04.272Z,17.07
2019-02-23T10:34:33.619Z,16.60
2019-02-23T10:37:02.907Z,16.00
2019-02-23T10:39:33.100Z,16.03
2019-02-23T10:42:02.339Z,16.00
2019-02-23T10:44:31.686Z,16.17
2019-02-23T10:47:00.945Z,15.77
2019-02-23T10:49:30.164Z,16.20
2019-02-23T10:51:59.435Z,15.60
2019-02-23T10:54:28.850Z,15.47
2019-02-23T10:56:58.158Z,14.80
2019-02-23T10:59:27.429Z,15.13
2019-02-23T11:01:56.754Z,14.30
2019-02-23T11:04:26.128Z,14.20
2019-02-23T11:06:55.460Z,14.70
2019-02-23T11:09:26.607Z,15.87
2019-02-23T11:11:56.023Z,24.10
2019-02-23T11:14:25.290Z,15.30
2019-02-23T11:16:54.627Z,16.23
2019-02-23T11:19:23.918Z,16.63
2019-02-23T11:21:53.491Z,15.93
2019-02-23T11:24:22.822Z,14.70
2019-02-23T11:26:52.780Z,15.20
2019-02-23T11:29:41.515Z,15.80
2019-02-23T11:32:10.842Z,14.63
2019-02-23T11:34:40.170Z,15.90
2019-02-23T11:37:09.454Z,15.57
2019-02-23T11:39:58.136Z,14.00
2019-02-23T11:42:27.390Z,13.53
2019-02-23T11:44:56.744Z,14.43
2019-02-23T11:47:26.065Z,15.37
2019-02-23T11:49:55.372Z,13.57
2019-02-23T11:52:24.879Z,13.70
2019-02-23T11:54:54.127Z,15.00
2019-02-23T11:57:23.395Z,14.20
2019-02-23T11:59:52.651Z,12.87
2019-02-23T12:02:21.954Z,13.90
2019-02-23T12:04:51.211Z,12.87
2019-02-23T12:07:20.622Z,12.97
2019-02-23T12:09:49.934Z,13.00
2019-02-23T12:12:19.195Z,14.90
2019-02-23T12:14:48.497Z,13.37
2019-02-23T12:17:37.076Z,14.00
2019-02-23T12:20:08.674Z,14.27
2019-02-23T12:22:37.926Z,14.77
2019-02-23T12:25:08.028Z,13.90
2019-02-23T12:27:38.911Z,14.30
2019-02-23T12:30:11.728Z,14.93
2019-02-23T12:33:00.322Z,14.27
2019-02-23T12:35:29.605Z,15.80
2019-02-23T12:37:58.952Z,14.30
2019-02-23T12:40:28.329Z,13.70
2019-02-23T12:42:57.601Z,13.30
2019-02-23T12:45:28.431Z,12.80
2019-02-23T12:47:58.045Z,11.60
2019-02-23T12:50:27.363Z,12.57
2019-02-23T12:52:56.679Z,11.57
2019-02-23T12:55:25.922Z,11.77
2019-02-23T12:57:55.235Z,13.90
2019-02-23T13:00:24.852Z,12.60
2019-02-23T13:02:54.277Z,13.17
2019-02-23T13:05:23.704Z,11.70
2019-02-23T13:07:55.817Z,11.60
2019-02-23T13:10:25.210Z,11.87
2019-02-23T13:13:09.395Z,11.57
2019-02-23T13:15:47.208Z,12.20
2019-02-23T13:18:37.366Z,12.40
2019-02-23T13:21:25.562Z,12.50
2019-02-23T13:24:31.959Z,11.60
2019-02-23T13:27:05.512Z,10.27
2019-02-23T13:30:08.559Z,13.53
2019-02-23T13:32:52.674Z,15.23
2019-02-23T13:35:33.631Z,16.03
2019-02-23T13:38:11.271Z,12.40
2019-02-23T13:41:04.327Z,14.40
2019-02-23T13:43:45.631Z,14.50
2019-02-23T13:46:20.387Z,15.03
2019-02-23T13:49:07.637Z,16.10
2019-02-23T13:51:59.940Z,14.27
2019-02-23T13:54:50.084Z,15.70
2019-02-23T13:57:31.275Z,15.67
2019-02-23T14:00:21.383Z,16.93
2019-02-23T14:03:02.576Z,15.00
2019-02-23T14:05:40.538Z,14.57
2019-02-23T14:11:48.731Z,16.00
2019-02-23T14:14:21.153Z,16.10
2019-02-23T14:16:59.854Z,16.10
2019-02-23T14:19:52.147Z,15.93
2019-02-23T14:22:26.963Z,14.60
2019-02-23T14:25:10.691Z,14.97
2019-02-23T14:27:45.699Z,15.07
2019-02-23T14:30:33.286Z,14.27
2019-02-23T14:33:29.955Z,14.70
2019-02-23T14:36:18.771Z,15.63
2019-02-23T14:39:07.972Z,14.80
2019-02-23T14:42:01.554Z,13.83
2019-02-23T14:44:45.742Z,14.70
2019-02-23T14:47:35.817Z,13.97
2019-02-23T14:50:44.501Z,14.83
2019-02-23T14:53:28.488Z,14.53
2019-02-23T14:56:15.826Z,14.70
2019-02-23T14:59:17.003Z,14.63
2019-02-23T15:01:49.319Z,15.73
2019-02-23T15:04:45.430Z,16.97
2019-02-23T15:07:23.740Z,14.13
2019-02-23T15:10:01.887Z,15.80
2019-02-23T15:12:49.246Z,16.07
2019-02-23T15:15:53.228Z,15.63
2019-02-23T15:18:42.184Z,15.10
2019-02-23T15:21:33.010Z,15.67
2019-02-23T15:24:14.300Z,14.57
2019-02-23T15:26:58.346Z,15.77
2019-02-23T15:29:33.405Z,16.00
2019-02-23T15:32:08.741Z,16.00
2019-02-23T15:35:06.670Z,16.17
2019-02-23T15:37:41.979Z,16.87
2019-02-23T15:40:30.483Z,17.83
2019-02-23T15:43:02.931Z,15.77
2019-02-23T15:45:44.139Z,16.67
2019-02-23T15:48:49.549Z,17.27
2019-02-23T15:51:18.992Z,18.30
2019-02-23T15:53:48.418Z,18.80
2019-02-23T15:56:17.736Z,17.37
2019-02-23T15:58:47.007Z,16.27
2019-02-23T16:01:16.353Z,16.37
2019-02-23T16:03:45.584Z,15.40
2019-02-23T16:06:15.219Z,16.07
2019-02-23T16:08:44.684Z,16.93
2019-02-23T16:11:14.119Z,15.70
2019-02-23T16:13:43.553Z,15.63
2019-02-23T16:16:12.826Z,15.77
2019-02-23T16:18:45.912Z,18.03
2019-02-23T16:21:15.240Z,19.93
2019-02-23T16:23:44.652Z,19.77
2019-02-23T16:26:14.028Z,22.13
2019-02-23T16:28:43.325Z,21.90
2019-02-23T16:31:12.660Z,24.00
2019-02-23T16:33:42.086Z,20.83
2019-02-23T16:36:11.393Z,24.10
2019-02-23T16:38:40.743Z,21.77
2019-02-23T16:41:10.241Z,20.80
2019-02-23T16:43:39.500Z,27.60
2019-02-23T16:46:08.832Z,29.10
2019-02-23T16:48:38.297Z,24.10
2019-02-23T16:51:07.603Z,25.43
2019-02-23T16:53:36.889Z,21.77
2019-02-23T16:56:25.538Z,24.30
2019-02-23T16:58:54.897Z,18.60
2019-02-23T17:01:24.240Z,16.57
2019-02-23T17:03:53.570Z,16.67
2019-02-23T17:06:22.936Z,15.57
2019-02-23T17:08:52.286Z,15.33
2019-02-23T17:11:40.938Z,15.37
2019-02-23T17:14:10.323Z,16.83
2019-02-23T17:16:39.587Z,15.67
2019-02-23T17:19:09.002Z,16.43
2019-02-23T17:21:38.344Z,29.40
2019-02-23T17:24:07.587Z,36.07
2019-02-23T17:26:37.016Z,17.50
2019-02-23T17:29:06.598Z,17.47
2019-02-23T17:31:35.950Z,18.20
2019-02-23T17:34:05.247Z,21.60
2019-02-23T17:36:34.624Z,19.37
2019-02-23T17:39:04.428Z,19.13
2019-02-23T17:41:33.679Z,18.13
2019-02-23T17:44:02.995Z,17.67
2019-02-23T17:46:32.259Z,18.17
2019-02-23T17:49:01.579Z,19.00
2019-02-23T17:51:30.894Z,20.00
2019-02-23T17:54:00.217Z,19.00
2019-02-23T17:56:29.554Z,20.60
2019-02-23T17:58:58.854Z,20.63
2019-02-23T18:01:28.270Z,19.27
2019-02-23T18:03:57.556Z,18.50
2019-02-23T18:06:26.908Z,19.70
2019-02-23T18:08:56.302Z,20.00
2019-02-23T18:11:25.572Z,18.90
2019-02-23T18:13:54.990Z,19.40
2019-02-23T18:16:24.243Z,18.57
2019-02-23T18:18:53.528Z,23.23
2019-02-23T18:21:22.793Z,19.90
2019-02-23T18:23:52.096Z,19.10
2019-02-23T18:26:26.836Z,17.07
2019-02-23T18:28:56.153Z,19.47
2019-02-23T18:31:44.760Z,19.43
2019-02-23T18:34:14.011Z,19.70
2019-02-23T18:36:43.291Z,20.10
2019-02-23T18:39:12.636Z,18.20
2019-02-23T18:41:41.999Z,19.97
2019-02-23T18:44:11.373Z,17.97
2019-02-23T18:46:40.771Z,18.97
2019-02-23T18:49:10.235Z,19.30
2019-02-23T18:51:39.495Z,19.80
2019-02-23T18:54:08.775Z,19.37
2019-02-23T18:56:38.121Z,19.63
2019-02-23T18:59:07.399Z,19.63
2019-02-23T19:01:36.823Z,18.93
2019-02-23T19:04:06.080Z,18.73
2019-02-23T19:06:35.445Z,20.43
2019-02-23T19:09:05.691Z,19.30
2019-02-23T19:11:35.086Z,18.60
2019-02-23T19:14:04.362Z,18.80
2019-02-23T19:16:35.452Z,19.07
2019-02-23T19:19:04.850Z,19.90
2019-02-23T19:21:34.101Z,20.43
2019-02-23T19:24:03.508Z,19.30
2019-02-23T19:26:38.162Z,19.17
2019-02-23T19:29:04.013Z,19.63
2019-02-23T19:31:33.251Z,20.27
2019-02-23T19:34:02.598Z,21.50
2019-02-23T19:36:31.855Z,20.13
2019-02-23T19:39:01.214Z,21.47
2019-02-23T19:41:49.902Z,19.60
2019-02-23T19:44:19.182Z,22.00
2019-02-23T19:46:50.592Z,20.60
2019-02-23T19:49:19.874Z,20.60
2019-02-23T19:51:51.480Z,19.77
2019-02-23T19:54:20.817Z,19.50
2019-02-23T19:56:50.142Z,20.53
2019-02-23T19:59:19.453Z,21.07
2019-02-23T20:01:48.730Z,20.83
2019-02-23T20:04:37.416Z,19.80
2019-02-23T20:07:06.792Z,19.23
2019-02-23T20:09:36.121Z,20.20
2019-02-23T20:12:05.394Z,20.07
2019-02-23T20:14:34.731Z,20.77
2019-02-23T20:17:04.066Z,20.60
2019-02-23T20:19:33.474Z,19.27
2019-02-23T20:22:03.517Z,19.27
2019-02-23T20:24:32.855Z,21.27
2019-02-23T20:27:02.226Z,18.10
2019-02-23T20:29:31.676Z,19.27
2019-02-23T20:32:01.041Z,22.10
2019-02-23T20:34:30.424Z,47.80
2019-02-23T20:36:59.826Z,19.90
2019-02-23T20:39:29.233Z,19.50
2019-02-23T20:41:58.645Z,17.50
2019-02-23T20:44:27.984Z,17.37
2019-02-23T20:46:57.384Z,18.60
2019-02-23T20:49:26.754Z,17.80
2019-02-23T20:51:56.010Z,16.50
2019-02-23T20:54:25.302Z,18.47
2019-02-23T20:56:54.629Z,17.43
2019-02-23T20:59:23.987Z,17.30
2019-02-23T21:01:53.334Z,16.37
2019-02-23T21:04:22.629Z,15.77
2019-02-23T21:06:51.979Z,16.77
2019-02-23T21:09:21.244Z,17.53
2019-02-23T21:11:50.607Z,17.50
2019-02-23T21:14:19.927Z,16.90
2019-02-23T21:16:49.188Z,13.63
2019-02-23T21:19:18.483Z,14.80
2019-02-23T21:21:47.923Z,16.57
2019-02-23T21:24:17.178Z,16.30
2019-02-23T21:26:46.462Z,16.27
2019-02-23T21:29:15.759Z,17.20
2019-02-23T21:31:45.001Z,16.17
2019-02-23T21:34:14.263Z,16.10
2019-02-23T21:36:43.539Z,16.73
2019-02-23T21:39:12.779Z,16.87
2019-02-23T21:41:42.049Z,16.23
2019-02-23T21:44:12.899Z,15.33
2019-02-23T21:46:42.319Z,16.50
2019-02-23T21:49:11.647Z,18.47
2019-02-23T21:51:41.040Z,22.60
2019-02-23T21:54:11.037Z,23.23
2019-02-23T21:56:42.972Z,20.90
2019-02-23T21:59:12.327Z,19.77
2019-02-23T22:01:41.640Z,20.07
2019-02-23T22:04:11.131Z,18.90
2019-02-23T22:06:40.469Z,18.97
2019-02-23T22:09:12.971Z,18.00
2019-02-23T22:11:42.289Z,18.63
2019-02-23T22:14:11.621Z,19.43
2019-02-23T22:16:40.882Z,17.97
2019-02-23T22:19:10.313Z,18.13
2019-02-23T22:21:58.963Z,18.90
2019-02-23T22:24:28.394Z,18.80
2019-02-23T22:26:57.699Z,18.70
2019-02-23T22:29:26.976Z,18.50
2019-02-23T22:31:56.281Z,17.87
2019-02-23T22:34:27.276Z,17.03
2019-02-23T22:36:56.659Z,15.80
2019-02-23T22:39:26.002Z,17.57
2019-02-23T22:41:55.279Z,15.30
2019-02-23T22:44:24.525Z,16.77
2019-02-23T22:46:53.871Z,16.10
2019-02-23T22:49:23.134Z,16.60
2019-02-23T22:51:52.390Z,16.13
2019-02-23T22:54:21.718Z,15.70
2019-02-23T22:56:50.977Z,15.60
2019-02-23T22:59:39.594Z,16.07
2019-02-23T23:02:09.036Z,15.00
2019-02-23T23:04:38.427Z,15.03
2019-02-23T23:07:07.888Z,16.63
2019-02-23T23:09:37.283Z,15.90
2019-02-23T23:12:06.665Z,14.97
2019-02-23T23:14:35.947Z,14.83
2019-02-23T23:17:05.278Z,16.30
2019-02-23T23:19:34.522Z,15.63
2019-02-23T23:22:03.855Z,14.33
2019-02-23T23:24:33.125Z,14.20
2019-02-23T23:27:02.438Z,14.70
2019-02-23T23:29:31.676Z,14.63
2019-02-23T23:32:00.946Z,14.50
2019-02-23T23:34:30.181Z,13.60
2019-02-23T23:36:59.455Z,14.53
2019-02-23T23:39:28.738Z,14.40
2019-02-23T23:41:58.290Z,15.20
2019-02-23T23:44:27.545Z,13.57
2019-02-23T23:46:56.787Z,14.30
2019-02-23T23:49:26.047Z,14.30
2019-02-23T23:51:55.314Z,13.63
2019-02-23T23:54:24.555Z,14.03
2019-02-23T23:56:53.920Z,13.30
2019-02-23T23:59:23.183Z,13.17
